Time;durP1;ratioP1;P1;durP2;ratioP2;P2;SDS_P1;SDS_P2;PMS_P1;PMS_P2;Temp;Humidity;BMP_temperature;BMP_pressure;BME280_temperature;BME280_humidity;BME280_pressure;Samples;Min_cycle;Max_cycle;Signal;HPM_P1;HPM_P2
2023/08/21 00:01:36;;;;;;;12.20;11.70;;;;;;;;;;5044043;28;20017;-62
2023/08/21 00:04:01;;;;;;;11.45;10.95;;;;;;;;;;5036925;28;20132;-62
2023/08/21 00:06:27;;;;;;;11.48;10.98;;;;;;;;;;5028768;28;20039;-61
2023/08/21 00:08:52;;;;;;;12.50;11.90;;;;;;;;;;5040665;28;20071;-62
2023/08/21 00:11:17;;;;;;;11.82;11.32;;;;;;;;;;5036990;28;20029;-61
2023/08/21 00:13:44;;;;;;;12.13;11.63;;;;;;;;;;5028184;28;20079;-62
2023/08/21 00:16:10;;;;;;;12.18;11.68;;;;;;;;;;5034817;28;20052;-62
2023/08/21 00:18:35;;;;;;;11.95;11.45;;;;;;;;;;5033314;28;20051;-62
2023/08/21 00:21:01;;;;;;;11.77;11.27;;;;;;;;;;5041381;28;20128;-63
2023/08/21 00:23:26;;;;;;;11.93;11.43;;;;;;;;;;5031180;28;20438;-62
2023/08/21 00:25:52;;;;;;;12.48;11.88;;;;;;;;;;5026784;28;20049;-62
2023/08/21 00:28:17;;;;;;;11.98;11.48;;;;;;;;;;5042276;28;20056;-62
2023/08/21 00:30:42;;;;;;;12.02;11.52;;;;;;;;;;5034680;28;20028;-62
2023/08/21 00:33:08;;;;;;;11.65;11.15;;;;;;;;;;5035552;28;20072;-62
2023/08/21 00:35:33;;;;;;;12.20;11.70;;;;;;;;;;5034472;28;20131;-62
2023/08/21 00:37:58;;;;;;;11.57;11.07;;;;;;;;;;5032613;28;20060;-62
2023/08/21 00:40:24;;;;;;;11.77;11.27;;;;;;;;;;5042628;28;20041;-62
2023/08/21 00:42:49;;;;;;;12.10;11.60;;;;;;;;;;5049415;28;20053;-61
2023/08/21 00:45:14;;;;;;;11.77;11.27;;;;;;;;;;5039430;28;20022;-63
2023/08/21 00:47:40;;;;;;;12.18;11.68;;;;;;;;;;5040692;28;20599;-61
2023/08/21 00:50:06;;;;;;;12.10;11.60;;;;;;;;;;5034034;28;20032;-62
2023/08/21 00:52:32;;;;;;;11.98;11.48;;;;;;;;;;5037545;28;20040;-62
2023/08/21 00:54:57;;;;;;;11.70;11.20;;;;;;;;;;5045171;28;20407;-62
2023/08/21 00:57:23;;;;;;;12.60;12.00;;;;;;;;;;5043658;28;20143;-62
2023/08/21 00:59:48;;;;;;;11.60;11.10;;;;;;;;;;5039473;28;20014;-62
2023/08/21 01:02:14;;;;;;;11.57;11.07;;;;;;;;;;5041676;28;20108;-63
2023/08/21 01:04:39;;;;;;;11.70;11.20;;;;;;;;;;5062538;28;20151;-62
2023/08/21 01:07:09;;;;;;;11.77;11.27;;;;;;;;;;5070916;28;20043;-63
2023/08/21 01:09:51;;;;;;;11.90;11.40;;;;;;;;;;5071521;28;20029;-63
2023/08/21 01:12:31;;;;;;;11.38;10.88;;;;;;;;;;5058274;28;20477;-61
2023/08/21 01:15:14;;;;;;;11.77;11.27;;;;;;;;;;5051095;28;20017;-63
2023/08/21 01:17:40;;;;;;;11.75;11.25;;;;;;;;;;5067579;28;20066;-61
2023/08/21 01:20:08;;;;;;;12.02;11.52;;;;;;;;;;5069006;28;20108;-63
2023/08/21 01:22:37;;;;;;;12.00;11.50;;;;;;;;;;5064721;28;20024;-63
2023/08/21 01:25:06;;;;;;;11.80;11.30;;;;;;;;;;5065188;28;20025;-64
2023/08/21 01:27:32;;;;;;;11.30;10.80;;;;;;;;;;5060172;28;20027;-62
2023/08/21 01:29:57;;;;;;;11.63;11.13;;;;;;;;;;5069247;28;20033;-62
2023/08/21 01:32:38;;;;;;;11.70;11.20;;;;;;;;;;5066104;28;20433;-63
2023/08/21 01:35:04;;;;;;;11.93;11.43;;;;;;;;;;5064076;28;20021;-63
2023/08/21 01:37:29;;;;;;;11.98;11.48;;;;;;;;;;5065341;28;20016;-63
2023/08/21 01:39:57;;;;;;;11.45;10.95;;;;;;;;;;5064918;28;20521;-63
2023/08/21 01:42:23;;;;;;;11.88;11.38;;;;;;;;;;5067913;28;20452;-63
2023/08/21 01:44:48;;;;;;;11.80;11.30;;;;;;;;;;5069025;28;20097;-63
2023/08/21 01:47:13;;;;;;;11.60;11.10;;;;;;;;;;5069132;28;20016;-63
2023/08/21 01:49:39;;;;;;;11.98;11.48;;;;;;;;;;5069258;28;20013;-63
2023/08/21 01:52:04;;;;;;;12.50;11.90;;;;;;;;;;5062809;28;20020;-62
2023/08/21 01:54:29;;;;;;;11.35;10.85;;;;;;;;;;5068311;28;20070;-63
2023/08/21 01:56:55;;;;;;;12.35;11.77;;;;;;;;;;5068976;28;20078;-63
2023/08/21 01:59:21;;;;;;;11.80;11.30;;;;;;;;;;5070334;28;20032;-63
2023/08/21 02:01:46;;;;;;;11.90;11.40;;;;;;;;;;5068778;28;20483;-62
2023/08/21 02:04:12;;;;;;;11.65;11.15;;;;;;;;;;5069681;28;20044;-62
2023/08/21 02:06:37;;;;;;;12.00;11.50;;;;;;;;;;5064714;28;20017;-62
2023/08/21 02:09:02;;;;;;;11.60;11.10;;;;;;;;;;5068331;28;20017;-62
2023/08/21 02:11:28;;;;;;;11.82;11.32;;;;;;;;;;5069242;28;20107;-62
2023/08/21 02:13:53;;;;;;;11.65;11.15;;;;;;;;;;5069199;28;20024;-61
2023/08/21 02:16:19;;;;;;;11.77;11.27;;;;;;;;;;5067641;28;20028;-62
2023/08/21 02:18:45;;;;;;;11.73;11.23;;;;;;;;;;5063097;28;20503;-61
2023/08/21 02:21:10;;;;;;;11.85;11.35;;;;;;;;;;5068894;28;20024;-63
2023/08/21 02:23:35;;;;;;;12.10;11.60;;;;;;;;;;5066114;28;20024;-62
2023/08/21 02:26:00;;;;;;;11.88;11.38;;;;;;;;;;5068823;28;20021;-62
2023/08/21 02:28:26;;;;;;;12.10;11.60;;;;;;;;;;5068363;28;20493;-62
2023/08/21 02:30:51;;;;;;;11.50;11.00;;;;;;;;;;5068213;28;20039;-63
2023/08/21 02:33:16;;;;;;;11.30;10.80;;;;;;;;;;5065208;28;20538;-63
2023/08/21 02:35:42;;;;;;;12.32;11.73;;;;;;;;;;5067010;28;20028;-62
2023/08/21 02:38:07;;;;;;;11.75;11.25;;;;;;;;;;5067410;28;20012;-62
2023/08/21 02:40:33;;;;;;;11.75;11.25;;;;;;;;;;5066595;28;20031;-63
2023/08/21 02:42:58;;;;;;;12.45;11.85;;;;;;;;;;5063828;28;20027;-62
2023/08/21 02:45:23;;;;;;;11.60;11.10;;;;;;;;;;5068059;28;20146;-63
2023/08/21 02:47:48;;;;;;;11.75;11.25;;;;;;;;;;5066318;28;20762;-61
2023/08/21 02:50:14;;;;;;;11.60;11.10;;;;;;;;;;5067225;28;20023;-62
2023/08/21 02:52:39;;;;;;;11.93;11.43;;;;;;;;;;5065315;28;22770;-63
2023/08/21 02:55:05;;;;;;;11.50;11.00;;;;;;;;;;5068022;28;20556;-64
2023/08/21 02:57:30;;;;;;;11.30;10.80;;;;;;;;;;5066654;28;20127;-62
2023/08/21 02:59:56;;;;;;;11.40;10.90;;;;;;;;;;5046515;28;20032;-63
2023/08/21 03:02:21;;;;;;;11.63;11.13;;;;;;;;;;5066747;28;20017;-62
2023/08/21 03:04:47;;;;;;;11.60;11.10;;;;;;;;;;5067177;28;20795;-63
2023/08/21 03:07:12;;;;;;;11.90;11.40;;;;;;;;;;5055081;28;20051;-63
2023/08/21 03:09:39;;;;;;;11.93;11.43;;;;;;;;;;5066269;28;20435;-63
2023/08/21 03:12:05;;;;;;;12.05;11.55;;;;;;;;;;5068988;28;20426;-63
2023/08/21 03:14:30;;;;;;;12.07;11.57;;;;;;;;;;5069218;28;20016;-62
2023/08/21 03:16:55;;;;;;;12.15;11.63;;;;;;;;;;5064587;28;20032;-63
2023/08/21 03:19:21;;;;;;;12.02;11.52;;;;;;;;;;5058197;28;20395;-63
2023/08/21 03:21:46;;;;;;;12.88;12.27;;;;;;;;;;5059994;28;20472;-64
2023/08/21 03:24:11;;;;;;;12.25;11.65;;;;;;;;;;5064276;28;20024;-63
2023/08/21 03:26:37;;;;;;;11.63;11.13;;;;;;;;;;5066104;28;20483;-64
2023/08/21 03:29:02;;;;;;;11.70;11.20;;;;;;;;;;5067245;28;20051;-63
2023/08/21 03:31:28;;;;;;;11.57;11.07;;;;;;;;;;5066346;28;20025;-63
2023/08/21 03:33:53;;;;;;;11.73;11.23;;;;;;;;;;5063838;28;20036;-62
2023/08/21 03:36:19;;;;;;;11.80;11.30;;;;;;;;;;5068578;28;20537;-64
2023/08/21 03:38:44;;;;;;;12.10;11.60;;;;;;;;;;5064126;28;20024;-63
2023/08/21 03:41:10;;;;;;;12.65;12.05;;;;;;;;;;5067744;28;20033;-63
2023/08/21 03:43:35;;;;;;;11.90;11.40;;;;;;;;;;5067856;28;20024;-63
2023/08/21 03:46:00;;;;;;;11.82;11.32;;;;;;;;;;5067828;28;20020;-63
2023/08/21 03:48:26;;;;;;;11.68;11.18;;;;;;;;;;5066843;28;20063;-63
2023/08/21 03:50:51;;;;;;;11.80;11.30;;;;;;;;;;5044778;28;20484;-63
2023/08/21 03:53:17;;;;;;;11.68;11.18;;;;;;;;;;5064221;28;20424;-63
2023/08/21 03:55:42;;;;;;;11.70;11.20;;;;;;;;;;5064040;28;20127;-62
2023/08/21 03:58:07;;;;;;;11.98;11.48;;;;;;;;;;5063597;28;20059;-62
2023/08/21 04:00:32;;;;;;;11.85;11.35;;;;;;;;;;5031477;28;20036;-63
2023/08/21 04:02:58;;;;;;;12.27;11.77;;;;;;;;;;5050641;28;20025;-62
2023/08/21 04:05:23;;;;;;;12.15;11.65;;;;;;;;;;5063296;28;20052;-63
2023/08/21 04:07:49;;;;;;;12.10;11.60;;;;;;;;;;5060830;28;20013;-64
2023/08/21 04:10:15;;;;;;;12.40;11.90;;;;;;;;;;5066140;28;20537;-62
2023/08/21 04:12:41;;;;;;;11.70;11.20;;;;;;;;;;5062732;28;20565;-63
2023/08/21 04:15:06;;;;;;;11.82;11.32;;;;;;;;;;5065185;28;20244;-65
2023/08/21 04:17:32;;;;;;;11.75;11.25;;;;;;;;;;5065369;28;20047;-64
2023/08/21 04:19:57;;;;;;;11.68;11.18;;;;;;;;;;5066105;28;20449;-63
2023/08/21 04:22:22;;;;;;;12.20;11.70;;;;;;;;;;5063594;28;20043;-63
2023/08/21 04:24:48;;;;;;;11.90;11.40;;;;;;;;;;5061711;28;20029;-63
2023/08/21 04:27:13;;;;;;;11.57;11.07;;;;;;;;;;5065852;28;20047;-63
2023/08/21 04:29:39;;;;;;;11.98;11.48;;;;;;;;;;5066102;28;20297;-63
2023/08/21 04:32:04;;;;;;;11.93;11.43;;;;;;;;;;5062991;28;20066;-64
2023/08/21 04:34:29;;;;;;;11.90;11.40;;;;;;;;;;5062984;28;20032;-64
2023/08/21 04:36:55;;;;;;;11.90;11.40;;;;;;;;;;5067350;28;20104;-64
2023/08/21 04:39:20;;;;;;;12.25;11.75;;;;;;;;;;5058908;28;20326;-64
2023/08/21 04:41:45;;;;;;;12.10;11.60;;;;;;;;;;5053273;28;20053;-63
2023/08/21 04:44:11;;;;;;;11.88;11.38;;;;;;;;;;5064360;28;20055;-63
2023/08/21 04:46:36;;;;;;;11.90;11.40;;;;;;;;;;5060181;28;20111;-64
2023/08/21 04:49:01;;;;;;;11.95;11.45;;;;;;;;;;5063850;28;20341;-60
2023/08/21 04:51:27;;;;;;;11.85;11.35;;;;;;;;;;5059790;28;20472;-60
2023/08/21 04:53:52;;;;;;;11.83;11.33;;;;;;;;;;5063795;28;20039;-61
2023/08/21 04:56:17;;;;;;;12.02;11.52;;;;;;;;;;5067567;28;20261;-60
2023/08/21 04:58:43;;;;;;;12.45;11.90;;;;;;;;;;5067113;28;20033;-61
2023/08/21 05:01:08;;;;;;;12.23;11.73;;;;;;;;;;5061569;28;20108;-61
2023/08/21 05:03:34;;;;;;;12.30;11.80;;;;;;;;;;5061771;28;20044;-61
2023/08/21 05:05:59;;;;;;;12.52;11.93;;;;;;;;;;5058189;28;20025;-62
2023/08/21 05:08:26;;;;;;;11.85;11.35;;;;;;;;;;5057666;28;20041;-61
2023/08/21 05:10:58;;;;;;;12.70;12.10;;;;;;;;;;5060609;28;20140;-62
2023/08/21 05:13:23;;;;;;;12.18;11.68;;;;;;;;;;5064501;28;20016;-62
2023/08/21 05:15:58;;;;;;;12.60;12.00;;;;;;;;;;5065025;28;20021;-61
2023/08/21 05:18:24;;;;;;;12.15;11.65;;;;;;;;;;5066673;28;20118;-61
2023/08/21 05:20:49;;;;;;;12.20;11.70;;;;;;;;;;5066888;28;20490;-61
2023/08/21 05:23:15;;;;;;;11.98;11.48;;;;;;;;;;5068215;28;20503;-62
2023/08/21 05:25:40;;;;;;;12.20;11.70;;;;;;;;;;5063698;28;20036;-61
2023/08/21 05:28:06;;;;;;;12.27;11.77;;;;;;;;;;5067875;28;20027;-62
2023/08/21 05:30:31;;;;;;;12.10;11.60;;;;;;;;;;5069237;28;20265;-61
2023/08/21 05:32:57;;;;;;;12.05;11.55;;;;;;;;;;5066387;28;20028;-61
2023/08/21 05:35:22;;;;;;;12.00;11.50;;;;;;;;;;5061426;28;20143;-61
2023/08/21 05:37:47;;;;;;;12.35;11.85;;;;;;;;;;5065346;28;20270;-63
2023/08/21 05:40:13;;;;;;;12.23;11.73;;;;;;;;;;5063828;28;20044;-62
2023/08/21 05:42:38;;;;;;;11.98;11.48;;;;;;;;;;5066940;28;20021;-62
2023/08/21 05:45:04;;;;;;;12.30;11.80;;;;;;;;;;5070844;28;20468;-61
2023/08/21 05:47:30;;;;;;;11.82;11.32;;;;;;;;;;5068985;28;20020;-61
2023/08/21 05:49:55;;;;;;;12.02;11.52;;;;;;;;;;5065345;28;20021;-62
2023/08/21 05:52:22;;;;;;;12.30;11.80;;;;;;;;;;5067158;28;20392;-61
2023/08/21 05:54:47;;;;;;;12.05;11.55;;;;;;;;;;5058030;28;20258;-61
2023/08/21 05:57:12;;;;;;;12.20;11.70;;;;;;;;;;5055502;28;20079;-62
2023/08/21 05:59:43;;;;;;;11.77;11.27;;;;;;;;;;5065267;28;20037;-62
2023/08/21 06:02:08;;;;;;;12.18;11.68;;;;;;;;;;5065115;28;20081;-62
2023/08/21 06:04:33;;;;;;;11.50;11.00;;;;;;;;;;5059603;28;20044;-62
2023/08/21 06:06:58;;;;;;;12.00;11.50;;;;;;;;;;5048831;28;20603;-62
2023/08/21 06:09:24;;;;;;;12.23;11.73;;;;;;;;;;5047735;28;20030;-62
2023/08/21 06:11:49;;;;;;;12.23;11.73;;;;;;;;;;5053713;28;20274;-62
2023/08/21 06:14:14;;;;;;;12.53;11.93;;;;;;;;;;5043006;28;20037;-61
2023/08/21 06:16:40;;;;;;;12.00;11.50;;;;;;;;;;5046714;28;20281;-62
2023/08/21 06:19:05;;;;;;;12.02;11.52;;;;;;;;;;5049915;28;20017;-62
2023/08/21 06:21:31;;;;;;;12.75;12.15;;;;;;;;;;5038878;28;20032;-61
2023/08/21 06:23:56;;;;;;;12.10;11.60;;;;;;;;;;5048025;28;20029;-61
2023/08/21 06:26:21;;;;;;;11.97;11.47;;;;;;;;;;5046618;28;20512;-62
2023/08/21 06:28:48;;;;;;;11.80;11.30;;;;;;;;;;5052740;28;20025;-61
2023/08/21 06:31:13;;;;;;;11.63;11.13;;;;;;;;;;5044559;28;20352;-62
2023/08/21 06:33:38;;;;;;;11.97;11.47;;;;;;;;;;5047666;28;20613;-61
2023/08/21 06:36:04;;;;;;;12.03;11.53;;;;;;;;;;5055987;28;20325;-62
2023/08/21 06:38:29;;;;;;;12.05;11.55;;;;;;;;;;5048337;28;20836;-61
2023/08/21 06:40:54;;;;;;;11.77;11.27;;;;;;;;;;5056022;28;20017;-62
2023/08/21 06:43:21;;;;;;;12.20;11.70;;;;;;;;;;5050229;28;20274;-62
2023/08/21 06:45:46;;;;;;;12.23;11.73;;;;;;;;;;5052967;28;20331;-62
2023/08/21 06:48:12;;;;;;;12.17;11.67;;;;;;;;;;5049481;28;20029;-61
2023/08/21 06:50:37;;;;;;;12.33;11.83;;;;;;;;;;5047946;28;20277;-61
2023/08/21 06:53:03;;;;;;;12.38;11.85;;;;;;;;;;5051821;28;20024;-63
2023/08/21 06:55:28;;;;;;;12.00;11.50;;;;;;;;;;5055507;28;20431;-61
2023/08/21 06:57:53;;;;;;;12.37;11.87;;;;;;;;;;5048661;28;20644;-61
2023/08/21 07:00:18;;;;;;;12.23;11.73;;;;;;;;;;5051903;28;20388;-61
2023/08/21 07:02:44;;;;;;;12.00;11.50;;;;;;;;;;5044536;28;20283;-62
2023/08/21 07:05:09;;;;;;;12.20;11.70;;;;;;;;;;5052839;28;20036;-62
2023/08/21 07:07:35;;;;;;;12.15;11.65;;;;;;;;;;5045536;28;20029;-63
2023/08/21 07:10:00;;;;;;;12.00;11.50;;;;;;;;;;5048098;28;20012;-63
2023/08/21 07:12:25;;;;;;;12.02;11.52;;;;;;;;;;5048989;28;20025;-63
2023/08/21 07:14:51;;;;;;;12.03;11.53;;;;;;;;;;5039702;28;20021;-61
2023/08/21 07:17:16;;;;;;;12.33;11.83;;;;;;;;;;5034674;28;20287;-65
2023/08/21 07:19:41;;;;;;;12.23;11.73;;;;;;;;;;5041108;28;20033;-64
2023/08/21 07:22:06;;;;;;;12.23;11.73;;;;;;;;;;5036707;28;20032;-65
2023/08/21 07:24:32;;;;;;;12.10;11.60;;;;;;;;;;5041915;28;20059;-63
2023/08/21 07:26:57;;;;;;;12.20;11.70;;;;;;;;;;5040538;28;20273;-63
2023/08/21 07:29:22;;;;;;;12.32;11.82;;;;;;;;;;5039625;28;20078;-64
2023/08/21 07:31:48;;;;;;;12.05;11.55;;;;;;;;;;5045561;28;20027;-63
2023/08/21 07:34:13;;;;;;;11.80;11.30;;;;;;;;;;5032300;28;20116;-64
2023/08/21 07:36:38;;;;;;;12.00;11.50;;;;;;;;;;5047657;28;20288;-64
2023/08/21 07:39:04;;;;;;;12.13;11.63;;;;;;;;;;5036322;28;20404;-65
2023/08/21 07:41:29;;;;;;;12.10;11.60;;;;;;;;;;5045365;28;20083;-66
2023/08/21 07:43:54;;;;;;;11.93;11.43;;;;;;;;;;5036119;28;20820;-66
2023/08/21 07:46:20;;;;;;;12.00;11.50;;;;;;;;;;5041562;28;20267;-66
2023/08/21 07:48:45;;;;;;;11.90;11.40;;;;;;;;;;5042500;28;20025;-64
2023/08/21 07:51:11;;;;;;;11.90;11.40;;;;;;;;;;5035907;28;20266;-65
2023/08/21 07:53:36;;;;;;;12.07;11.57;;;;;;;;;;5042970;28;20178;-66
2023/08/21 07:56:03;;;;;;;11.73;11.23;;;;;;;;;;5043071;28;20087;-66
2023/08/21 07:58:29;;;;;;;11.95;11.45;;;;;;;;;;5046204;28;20029;-72
2023/08/21 08:00:54;;;;;;;12.40;11.88;;;;;;;;;;5040690;28;20048;-64
2023/08/21 08:03:20;;;;;;;11.90;11.40;;;;;;;;;;5040741;28;20040;-65
2023/08/21 08:05:45;;;;;;;12.10;11.60;;;;;;;;;;5058802;28;20547;-66
2023/08/21 08:08:11;;;;;;;12.27;11.77;;;;;;;;;;5062017;28;20020;-65
2023/08/21 08:10:40;;;;;;;11.93;11.43;;;;;;;;;;5060775;28;20271;-65
2023/08/21 08:13:05;;;;;;;12.25;11.75;;;;;;;;;;5062499;28;20020;-64
2023/08/21 08:15:30;;;;;;;12.10;11.60;;;;;;;;;;5065722;28;20596;-63
2023/08/21 08:17:57;;;;;;;11.80;11.30;;;;;;;;;;5063345;28;20459;-65
2023/08/21 08:20:22;;;;;;;12.18;11.68;;;;;;;;;;5063341;28;20315;-65
2023/08/21 08:22:47;;;;;;;12.20;11.70;;;;;;;;;;5063915;28;20028;-66
2023/08/21 08:25:13;;;;;;;12.10;11.60;;;;;;;;;;5061401;28;20058;-64
2023/08/21 08:27:39;;;;;;;12.00;11.50;;;;;;;;;;5061295;28;20368;-64
2023/08/21 08:30:05;;;;;;;12.00;11.50;;;;;;;;;;5059643;28;20411;-64
2023/08/21 08:32:30;;;;;;;11.82;11.32;;;;;;;;;;5061426;28;20029;-63
2023/08/21 08:34:55;;;;;;;11.98;11.48;;;;;;;;;;5064235;28;20492;-65
2023/08/21 08:37:21;;;;;;;12.15;11.65;;;;;;;;;;5064285;28;20028;-66
2023/08/21 08:39:46;;;;;;;12.20;11.70;;;;;;;;;;5064538;28;20614;-66
2023/08/21 08:42:12;;;;;;;12.25;11.75;;;;;;;;;;5059518;28;20598;-65
2023/08/21 08:44:38;;;;;;;12.18;11.68;;;;;;;;;;5060507;28;20047;-67
2023/08/21 08:47:03;;;;;;;12.38;11.88;;;;;;;;;;5060752;28;20032;-66
2023/08/21 08:49:30;;;;;;;12.15;11.65;;;;;;;;;;5065332;28;20174;-65
2023/08/21 08:51:56;;;;;;;11.90;11.40;;;;;;;;;;5062534;28;20448;-65
2023/08/21 08:54:22;;;;;;;12.10;11.60;;;;;;;;;;5062621;28;20032;-65
2023/08/21 08:56:47;;;;;;;11.77;11.27;;;;;;;;;;5063762;28;20123;-66
2023/08/21 08:59:14;;;;;;;12.00;11.50;;;;;;;;;;5062364;28;20124;-66
2023/08/21 09:01:39;;;;;;;11.70;11.20;;;;;;;;;;5063376;28;20771;-66
2023/08/21 09:04:05;;;;;;;11.77;11.27;;;;;;;;;;5058136;28;20052;-67
2023/08/21 09:06:32;;;;;;;12.10;11.60;;;;;;;;;;5042614;28;20021;-65
2023/08/21 09:08:57;;;;;;;12.00;11.50;;;;;;;;;;5046341;28;20191;-66
2023/08/21 09:11:23;;;;;;;11.82;11.32;;;;;;;;;;5042820;28;20099;-66
2023/08/21 09:13:52;;;;;;;11.85;11.35;;;;;;;;;;5048231;28;20505;-67
2023/08/21 09:16:21;;;;;;;11.88;11.38;;;;;;;;;;5045117;28;20037;-68
2023/08/21 09:18:50;;;;;;;11.55;11.05;;;;;;;;;;5045471;28;20036;-66
2023/08/21 09:21:16;;;;;;;12.00;11.50;;;;;;;;;;5046405;28;20429;-65
2023/08/21 09:23:42;;;;;;;12.00;11.50;;;;;;;;;;5035506;28;20439;-66
2023/08/21 09:26:07;;;;;;;11.57;11.07;;;;;;;;;;5048770;28;20103;-66
2023/08/21 09:28:32;;;;;;;11.90;11.40;;;;;;;;;;5031877;28;20292;-66
2023/08/21 09:30:58;;;;;;;12.02;11.52;;;;;;;;;;5043559;28;20278;-65
2023/08/21 09:33:24;;;;;;;11.77;11.27;;;;;;;;;;5043473;28;20403;-64
2023/08/21 09:35:52;;;;;;;11.80;11.30;;;;;;;;;;5041807;28;20391;-65
2023/08/21 09:38:18;;;;;;;11.77;11.27;;;;;;;;;;5042391;28;20048;-66
2023/08/21 09:40:51;;;;;;;11.80;11.30;;;;;;;;;;5046100;28;20060;-64
2023/08/21 09:43:16;;;;;;;11.90;11.40;;;;;;;;;;5038388;28;20079;-63
2023/08/21 09:45:45;;;;;;;12.05;11.55;;;;;;;;;;5041187;28;20017;-65
2023/08/21 09:48:10;;;;;;;12.30;11.80;;;;;;;;;;5020575;28;20044;-66
2023/08/21 09:50:38;;;;;;;11.97;11.47;;;;;;;;;;5042711;28;20029;-64
2023/08/21 09:53:05;;;;;;;12.02;11.52;;;;;;;;;;5039641;28;20270;-65
2023/08/21 09:55:31;;;;;;;11.75;11.25;;;;;;;;;;5039854;28;20048;-66
2023/08/21 09:58:00;;;;;;;11.82;11.32;;;;;;;;;;5040761;28;20029;-65
2023/08/21 10:00:32;;;;;;;12.25;11.75;;;;;;;;;;5042697;28;20236;-66
2023/08/21 10:03:03;;;;;;;12.20;11.70;;;;;;;;;;5044807;28;20033;-65
2023/08/21 10:05:29;;;;;;;11.90;11.40;;;;;;;;;;5041981;28;20103;-69
2023/08/21 10:07:55;;;;;;;11.73;11.23;;;;;;;;;;5046660;28;20035;-66
2023/08/21 10:10:20;;;;;;;11.77;11.27;;;;;;;;;;5047343;28;20696;-66
2023/08/21 10:12:46;;;;;;;12.02;11.52;;;;;;;;;;5046027;28;20032;-65
2023/08/21 10:15:12;;;;;;;12.10;11.60;;;;;;;;;;5048070;28;20107;-67
2023/08/21 10:17:38;;;;;;;11.95;11.45;;;;;;;;;;5049971;28;20079;-65
2023/08/21 10:20:04;;;;;;;11.77;11.27;;;;;;;;;;5050287;28;20428;-66
2023/08/21 10:22:43;;;;;;;12.02;11.52;;;;;;;;;;5039596;28;20041;-66
2023/08/21 10:25:27;;;;;;;11.88;11.38;;;;;;;;;;5044376;28;20038;-65
2023/08/21 10:27:56;;;;;;;11.90;11.40;;;;;;;;;;5050665;28;20025;-66
2023/08/21 10:30:23;;;;;;;12.05;11.55;;;;;;;;;;5044528;28;20536;-65
2023/08/21 10:32:49;;;;;;;12.00;11.50;;;;;;;;;;5039362;28;20043;-64
2023/08/21 10:35:16;;;;;;;11.77;11.27;;;;;;;;;;5048451;28;20531;-65
2023/08/21 10:38:00;;;;;;;12.00;11.50;;;;;;;;;;5046471;28;20119;-66
2023/08/21 10:40:26;;;;;;;12.13;11.63;;;;;;;;;;5047625;28;20041;-65
2023/08/21 10:42:52;;;;;;;12.13;11.63;;;;;;;;;;5044580;28;20032;-65
2023/08/21 10:45:17;;;;;;;12.07;11.57;;;;;;;;;;5043806;28;20029;-65
2023/08/21 10:47:42;;;;;;;11.88;11.38;;;;;;;;;;5045665;28;20044;-65
2023/08/21 10:50:08;;;;;;;11.40;10.90;;;;;;;;;;5028631;28;20024;-64
2023/08/21 10:52:33;;;;;;;11.70;11.20;;;;;;;;;;5046575;28;20029;-64
2023/08/21 10:55:00;;;;;;;11.70;11.20;;;;;;;;;;5051069;28;20036;-64
2023/08/21 10:57:26;;;;;;;12.15;11.65;;;;;;;;;;5048983;28;20621;-64
2023/08/21 10:59:52;;;;;;;12.00;11.50;;;;;;;;;;5042656;28;20080;-66
2023/08/21 11:02:18;;;;;;;11.90;11.40;;;;;;;;;;5044696;28;20033;-64
2023/08/21 11:04:44;;;;;;;12.00;11.50;;;;;;;;;;5050890;28;20045;-65
2023/08/21 11:07:09;;;;;;;11.98;11.48;;;;;;;;;;5052916;28;20108;-66
2023/08/21 11:09:35;;;;;;;12.00;11.50;;;;;;;;;;5047631;28;20017;-64
2023/08/21 11:12:04;;;;;;;12.20;11.70;;;;;;;;;;5052456;28;20115;-66
2023/08/21 11:14:31;;;;;;;11.93;11.43;;;;;;;;;;5050254;28;20039;-66
2023/08/21 11:16:56;;;;;;;12.35;11.85;;;;;;;;;;5057418;28;20487;-65
2023/08/21 11:19:24;;;;;;;12.60;12.00;;;;;;;;;;5054124;28;20021;-66
2023/08/21 11:21:52;;;;;;;12.30;11.80;;;;;;;;;;5055817;28;20849;-66
2023/08/21 11:24:17;;;;;;;11.73;11.23;;;;;;;;;;5055120;28;20020;-65
2023/08/21 11:26:43;;;;;;;11.85;11.35;;;;;;;;;;5056816;28;20091;-66
2023/08/21 11:29:08;;;;;;;11.93;11.43;;;;;;;;;;5057123;28;20020;-65
2023/08/21 11:31:34;;;;;;;11.48;10.98;;;;;;;;;;5061542;28;20032;-65
2023/08/21 11:33:59;;;;;;;12.05;11.55;;;;;;;;;;5057918;28;20021;-65
2023/08/21 11:36:24;;;;;;;11.88;11.38;;;;;;;;;;5060020;28;20055;-66
2023/08/21 11:39:00;;;;;;;11.80;11.30;;;;;;;;;;5062887;28;20027;-65
2023/08/21 11:41:25;;;;;;;11.90;11.40;;;;;;;;;;5059824;28;20025;-66
2023/08/21 11:43:50;;;;;;;11.95;11.45;;;;;;;;;;5053655;28;20029;-65
2023/08/21 11:46:17;;;;;;;12.10;11.60;;;;;;;;;;5056333;28;20053;-65
2023/08/21 11:48:44;;;;;;;11.82;11.32;;;;;;;;;;5061675;28;20280;-64
2023/08/21 11:51:10;;;;;;;12.02;11.52;;;;;;;;;;5054002;28;20024;-66
2023/08/21 11:53:39;;;;;;;12.13;11.63;;;;;;;;;;5051585;28;20036;-63
2023/08/21 11:56:15;;;;;;;12.13;11.63;;;;;;;;;;5062159;28;20058;-64
2023/08/21 11:58:41;;;;;;;12.00;11.50;;;;;;;;;;5063563;28;20039;-65
2023/08/21 12:01:09;;;;;;;12.10;11.60;;;;;;;;;;5059974;28;20032;-64
2023/08/21 12:03:36;;;;;;;12.40;11.88;;;;;;;;;;5049963;28;20063;-66
2023/08/21 12:06:04;;;;;;;11.85;11.35;;;;;;;;;;5040449;28;20095;-65
2023/08/21 12:08:29;;;;;;;12.10;11.60;;;;;;;;;;5049787;28;20020;-65
2023/08/21 12:10:55;;;;;;;11.70;11.20;;;;;;;;;;5049921;28;20016;-66
2023/08/21 12:13:20;;;;;;;12.07;11.57;;;;;;;;;;5026842;28;20044;-65
2023/08/21 12:15:45;;;;;;;11.93;11.43;;;;;;;;;;5043914;28;20029;-64
2023/08/21 12:18:11;;;;;;;11.80;11.30;;;;;;;;;;5035624;28;20109;-64
2023/08/21 12:20:36;;;;;;;11.87;11.37;;;;;;;;;;5050323;28;20426;-68
2023/08/21 12:23:02;;;;;;;11.73;11.23;;;;;;;;;;5053260;28;20280;-64
2023/08/21 12:25:27;;;;;;;11.82;11.32;;;;;;;;;;5045914;28;20028;-66
2023/08/21 12:27:52;;;;;;;12.00;11.50;;;;;;;;;;5048988;28;20400;-66
2023/08/21 12:30:18;;;;;;;11.98;11.48;;;;;;;;;;5047688;28;20246;-65
2023/08/21 12:32:43;;;;;;;12.10;11.60;;;;;;;;;;5048337;28;20021;-65
2023/08/21 12:35:11;;;;;;;12.18;11.68;;;;;;;;;;5049958;28;20029;-65
2023/08/21 12:37:37;;;;;;;12.00;11.50;;;;;;;;;;5035066;28;20025;-64
2023/08/21 12:40:04;;;;;;;12.13;11.63;;;;;;;;;;5048897;28;20024;-65
2023/08/21 12:42:29;;;;;;;11.80;11.30;;;;;;;;;;5033623;28;20043;-65
2023/08/21 12:44:54;;;;;;;11.97;11.47;;;;;;;;;;5045855;28;20081;-64
2023/08/21 12:47:19;;;;;;;12.00;11.50;;;;;;;;;;5046253;28;20296;-65
2023/08/21 12:49:45;;;;;;;11.77;11.27;;;;;;;;;;5050094;28;20024;-65
2023/08/21 12:52:12;;;;;;;11.88;11.38;;;;;;;;;;5055308;28;20689;-62
2023/08/21 12:54:38;;;;;;;12.57;12.00;;;;;;;;;;5043251;28;20057;-63
2023/08/21 12:57:04;;;;;;;11.85;11.35;;;;;;;;;;5037094;28;20021;-63
2023/08/21 12:59:29;;;;;;;11.70;11.20;;;;;;;;;;5049734;28;20039;-65
2023/08/21 13:01:54;;;;;;;11.75;11.25;;;;;;;;;;5049913;28;20423;-66
2023/08/21 13:04:20;;;;;;;11.68;11.18;;;;;;;;;;5065546;28;20742;-64
2023/08/21 13:06:45;;;;;;;12.07;11.57;;;;;;;;;;5066257;28;20020;-64
2023/08/21 13:09:10;;;;;;;11.80;11.30;;;;;;;;;;5064208;28;20092;-65
2023/08/21 13:11:35;;;;;;;11.63;11.13;;;;;;;;;;5068940;28;20606;-65
2023/08/21 13:14:01;;;;;;;11.83;11.33;;;;;;;;;;5071737;28;20337;-66
2023/08/21 13:16:26;;;;;;;11.80;11.30;;;;;;;;;;5072705;28;20406;-64
2023/08/21 13:18:51;;;;;;;11.87;11.37;;;;;;;;;;5071993;28;20075;-63
2023/08/21 13:21:17;;;;;;;12.40;11.87;;;;;;;;;;5067265;28;20803;-65
2023/08/21 13:23:42;;;;;;;12.10;11.60;;;;;;;;;;5064773;28;20292;-65
2023/08/21 13:26:07;;;;;;;11.88;11.38;;;;;;;;;;5067696;28;20543;-62
2023/08/21 13:28:34;;;;;;;11.82;11.32;;;;;;;;;;5062992;28;20028;-64
2023/08/21 13:30:59;;;;;;;11.85;11.35;;;;;;;;;;5072571;28;20069;-66
2023/08/21 13:33:25;;;;;;;11.68;11.18;;;;;;;;;;5067024;28;20032;-65
2023/08/21 13:35:50;;;;;;;12.02;11.52;;;;;;;;;;5073707;28;20391;-64
2023/08/21 13:38:15;;;;;;;12.05;11.55;;;;;;;;;;5073470;28;20029;-64
2023/08/21 13:40:41;;;;;;;12.00;11.50;;;;;;;;;;5069340;28;20046;-64
2023/08/21 13:43:09;;;;;;;12.00;11.50;;;;;;;;;;5065040;28;20025;-64
2023/08/21 13:45:35;;;;;;;11.85;11.35;;;;;;;;;;5065731;28;20036;-64
2023/08/21 13:48:00;;;;;;;12.10;11.60;;;;;;;;;;5064895;28;20021;-65
2023/08/21 13:50:25;;;;;;;12.10;11.60;;;;;;;;;;5069916;28;20104;-64
2023/08/21 13:52:51;;;;;;;11.85;11.35;;;;;;;;;;5064041;28;20017;-65
2023/08/21 13:55:16;;;;;;;12.00;11.50;;;;;;;;;;5068427;28;20029;-62
2023/08/21 13:57:42;;;;;;;11.93;11.43;;;;;;;;;;5062376;28;20271;-64
2023/08/21 14:00:11;;;;;;;11.95;11.45;;;;;;;;;;5081816;28;20483;-64
2023/08/21 14:02:37;;;;;;;12.10;11.60;;;;;;;;;;5083466;28;20028;-63
2023/08/21 14:05:04;;;;;;;11.45;10.95;;;;;;;;;;5071804;28;20040;-63
2023/08/21 14:07:30;;;;;;;11.63;11.13;;;;;;;;;;5087508;28;20510;-66
2023/08/21 14:09:55;;;;;;;11.93;11.43;;;;;;;;;;5088438;28;20062;-62